Holly Springs, Arkansas
Current Conditions -  °F | °C
As of 7:56 AM on Wednesday 28 Jan 2015 (Local Time) from KSRC Reporting Station
Clear Clear  
Wind Chill: 35°   Ceiling: Unl
Heat Index: 35°   Visibility: 7mi
Dew Point: 33°   Wind: 3mph
Humidity: 92%   Direction: 60°ENE
Pressure: 30.29"   Gusts: NA
Location:  35.2662°N, 91.8491°W
Report Text: KSRC 281356Z AUTO 06003KT 7SM CLR 02/01 A3029 RMK AO2 SLP264 T00170006 FZRANO TSNO
Loading
Personal Weather Stations






























Interactive Weather Map New forecast layout! Learn more

10-Day Weather Forecast

Advertisements
Track Severe Weather on mobile